nazwa.pl
Katalog Biskupów [Allegro.pl - najwi?kszy serwis aukcyjny w Polsce]
wg daty | wg procentu pozytywów | wg loginu | tylko arcybiskupi
[1-100] [101-200] [201-300] [301-400] [401-500] [pokaż dalsze]
lpwynikużytkownikbiskup odpozy- tywynegineutre-
ale
procent
pozyt.
104017831 tanie-granie (7831)2006-07-31 12:54:05 8733203299.4
104021000 muguruza (1000)2006-07-31 12:59:36 10990499.6
10403891 mediari (891)2006-07-31 13:21:40 16326299.5
104041027 iwosto (1027)2006-07-31 14:10:53 16687199.5
1040512069 AUTO-MOTOR (12069)2006-07-31 15:16:01 1803661799.9
10406913 j_jollka (913)2006-07-31 15:23:58 97571398.0
10407892 LLLESZEK (892)2006-07-31 15:32:45 12364099.7
104082081 cazeec (2081)2006-07-31 18:05:20 34063799.7
10409818 WILIAM_77 (818)2006-07-31 20:11:03 9516299.2
104101087 S.Hebel (1087)2006-07-31 20:13:58 160900100.0
104112384 100perPL (2384)2006-07-31 20:48:42 43290399.9
10412792 wDomu_pl (792)2006-07-31 21:23:45 8261099.9
104131187 KiNetiC (1187)2006-07-31 22:32:40 24857699.5
10414700 FOTOANIA_II (700)2006-07-31 22:34:47 9631399.6
104151628 juby31 (1628)2006-07-31 23:24:43 18041199.9
10416740 biblioman1 (740)2006-07-31 23:45:57 8823099.7
104171348 kozakko1 (1348)2006-08-01 06:59:03 29722299.9
104183566 macdor1 (3566)2006-08-01 09:49:51 890321199.9
10419979 Smiechoterapia (979)2006-08-01 10:24:00 11173299.6
104203375 agrolan (3375)2006-08-01 11:53:24 4435142799.1
104211008 uchodzca (1008)2006-08-01 13:20:52 124800100.0
104222207 silva-rerum (2207)2006-08-01 19:26:22 34161499.9
10423682 www_surfmix_com (682)2006-08-01 20:51:51 8241199.8
104241510 doro73 (1510)2006-08-01 20:56:47 21314399.7
104253873 Vidocq1 (3873)2006-08-01 21:04:45 80845799.9
104261239 alwa_shop (1239)2006-08-01 21:33:16 14920299.9
104273071 Technik28 (3071)2006-08-01 22:23:18 33870399.9
1042821183 GLLASER (21183)2006-08-01 22:35:29 25622249699.5
10429996 SZWERO (996)2006-08-01 22:55:50 10748399.0
104302349 marec007 (2349)2006-08-02 08:41:01 2458304297.2
104311558 Esti_2005 (1558)2006-08-02 08:50:10 17811299.8
104324586 godfellas (4586)2006-08-02 09:26:37 5168254998.6
104332877 studiook (2877)2006-08-02 10:43:24 585801199.8
104341703 MarekOrini (1703)2006-08-02 11:23:03 387700100.0
104353954 honest007 (3954)2006-08-02 11:47:58 6102132499.4
104361891 max_przecena (1891)2006-08-02 12:43:37 24638799.4
104371128 Konrad_AM (1128)2006-08-02 12:45:46 11551499.6
10438983 sartori (983)2006-08-02 15:13:12 19041099.9
104391392 amator13 (1392)2006-08-02 15:29:48 15874199.7
104401787 edyta1976 (1787)2006-08-02 20:15:04 42990399.9
104411373 kris_63 (1373)2006-08-02 20:47:52 151371298.8
104422596 matpol05 (2596)2006-08-02 21:06:57 26940299.9
104435464 elendili (5464)2006-08-02 21:34:47 6726874698.1
104441249 medart_raw (1249)2006-08-02 22:56:01 13850199.9
104456138 bestseller (6138)2006-08-02 23:07:41 6483132199.5
104461929 slawekm27 (1929)2006-08-03 07:43:45 211310100.0
10447931 pablo_bianco (931)2006-08-03 08:05:24 979141297.4
104481262 taurus80 (1262)2006-08-03 08:38:04 12934299.5
104491275 blue-berry (1275)2006-08-03 10:00:45 151315598.7
104502442 elkaza1 (2442)2006-08-03 11:22:58 46461399.9
104514823 PATURAL (4823)2006-08-03 11:46:53 6780161899.5
10452699 galabea (699)2006-08-03 13:13:34 8252099.8
10453672 Griszka13 (672)2006-08-03 14:24:31 7067298.7
104542038 mPlanet-pl (2038)2006-08-03 14:32:35 20974799.5
104552978 easyradeck (2978)2006-08-03 14:39:05 70653699.9
104561312 e-mineo (1312)2006-08-03 15:25:43 17911299.8
10457883 _magnetyzery_ (883)2006-08-03 15:34:21 9281499.5
104581704 natacha2 (1704)2006-08-03 15:45:56 19436299.6
104598064 combajn (8064)2006-08-03 16:43:00 8894122599.6
10460858 Stasiu12 (858)2006-08-03 17:29:19 917171396.8
10461959 -PIEGUSEK- (959)2006-08-03 17:38:56 102211798.3
104621204 theos2 (1204)2006-08-03 19:56:23 256200100.0
104631673 mala-99 (1673)2006-08-03 20:01:54 2101193297.6
104641388 marek_el (1388)2006-08-03 21:05:07 324201100.0
104651154 _JK_ (1154)2006-08-03 21:05:54 14131399.7
104661623 edool (1623)2006-08-03 22:05:00 17952399.7
10467678 TNT_COMPUTERS (678)2006-08-03 22:43:54 6884598.7
104685615 jo29 (5615)2006-08-03 22:47:54 11174334299.3
104693247 darpus (3247)2006-08-03 23:57:01 46462399.9
104701490 Pola_G (1490)2006-08-04 00:36:40 21980799.7
10471672 kasiak21 (672)2006-08-04 11:19:02 82615098.2
104723052 megitel (3052)2006-08-04 14:05:10 3385313098.2
10473634 monik13 (634)2006-08-04 14:50:08 11363099.7
104742174 aquah2o (2174)2006-08-04 15:11:15 58094899.8
1047517089 Maciek_Misiak (17089)2006-08-04 17:04:02 3199172363595.9
104764709 Gcrapella (4709)2006-08-04 17:50:29 603733699.4
1047715341 dorisfh (15341)2006-08-04 18:17:30 18307257099.5
10478886 jacekford (886)2006-08-04 18:18:27 15434899.2
10479993 peem (993)2006-08-04 19:12:04 10983499.4
1048016382 szwedka (16382)2006-08-04 19:33:20 2612442999.9
10481890 jareraj (890)2006-08-04 20:20:01 12140199.9
104823517 bcraft (3517)2006-08-04 20:39:50 37391499.9
10483659 hyjekzbigniew (659)2006-08-04 21:17:53 86447993.9
10484852 PPUHADAM (852)2006-08-04 22:51:07 9140199.9
10485822 Snake_11 (822)2006-08-05 05:22:59 8550199.9
1048610139 -TESPIS- (10139)2006-08-05 07:48:25 149740899.9
104871295 miroslaw17 (1295)2006-08-05 08:21:37 144911099.2
104881402 leszeksitarz (1402)2006-08-05 09:02:04 1539264195.8
10489797 horse_sport (797)2006-08-05 09:30:51 11171399.6
104901122 lilith606 (1122)2006-08-05 12:04:40 12743299.6
104911728 dalson (1728)2006-08-05 13:48:55 3477112099.1
104921528 mcaleczka (1528)2006-08-05 15:03:07 178300100.0
104931474 calodobowy_pl (1474)2006-08-05 15:32:32 16131399.8
104943607 Andrewo_20 (3607)2006-08-05 16:57:09 39102499.8
104952893 lordvandoro (2893)2006-08-05 17:21:30 3414202098.8
104963812 PHClaudia (3812)2006-08-05 19:01:08 48180999.8
1049726931 ElektrolandComPL (26931)2006-08-05 19:10:49 3566486774695.7
104981081 FH_GUCIO (1081)2006-08-05 19:57:49 17342799.5
104991653 ali_aligator (1653)2006-08-05 21:16:55 20024399.7
105001188 jackpolfra (1188)2006-08-05 22:02:43 651921100.0
[1-100] [101-200] [201-300] [301-400] [401-500] [pokaż dalsze]